createdAt,value
2022-12-04T00:00:15.036Z,97.7
2022-12-04T00:05:51.017Z,97.6
2022-12-04T00:11:32.097Z,97.6
2022-12-04T00:17:09.919Z,97.8
2022-12-04T00:22:46.968Z,97.8
2022-12-04T00:28:41.537Z,97.8
2022-12-04T00:34:19.423Z,97.9
2022-12-04T00:40:03.150Z,97.9
2022-12-04T00:45:48.264Z,97.9
2022-12-04T00:51:23.981Z,98
2022-12-04T00:57:03.094Z,98.2
2022-12-04T01:02:38.366Z,98.4
2022-12-04T01:08:23.417Z,98.4
2022-12-04T01:14:06.726Z,98.3
2022-12-04T01:19:41.845Z,98.4
2022-12-04T01:25:52.830Z,98.4
2022-12-04T01:31:33.211Z,98.6
2022-12-04T01:37:11.328Z,98.4
2022-12-04T01:42:47.171Z,98.8
2022-12-04T01:48:49.602Z,98.7
2022-12-04T01:54:22.133Z,99
2022-12-04T01:59:58.046Z,99.1
2022-12-04T02:05:33.613Z,99.1
2022-12-04T02:11:10.857Z,99.2
2022-12-04T02:16:49.223Z,99.3
2022-12-04T02:22:33.544Z,99.6
2022-12-04T02:28:09.062Z,99.3
2022-12-04T02:33:46.550Z,99.4
2022-12-04T02:39:34.767Z,99.4
2022-12-04T02:45:10.247Z,99.5
2022-12-04T02:50:45.252Z,99.5
2022-12-04T02:56:22.093Z,99.4
2022-12-04T03:02:00.044Z,99.4
2022-12-04T03:07:35.811Z,99.6
2022-12-04T03:13:11.823Z,99.6
2022-12-04T03:18:49.962Z,99.8
2022-12-04T03:24:57.353Z,99.6
2022-12-04T03:30:52.368Z,99.8
2022-12-04T03:36:28.901Z,100
2022-12-04T03:42:27.224Z,99.9
2022-12-04T03:48:45.295Z,99.8
2022-12-04T03:54:17.985Z,100
2022-12-04T04:00:03.970Z,99.8
2022-12-04T04:05:54.456Z,99.8
2022-12-04T04:11:37.247Z,99.9
2022-12-04T04:17:12.400Z,99.9
2022-12-04T04:22:56.818Z,99.9
2022-12-04T04:28:45.888Z,100
2022-12-04T04:34:23.075Z,100
2022-12-04T04:40:01.239Z,100
2022-12-04T04:45:36.093Z,100
2022-12-04T04:51:13.988Z,100
2022-12-04T04:56:48.911Z,100
2022-12-04T05:02:24.464Z,100
2022-12-04T05:08:39.739Z,100
2022-12-04T05:14:43.825Z,100
2022-12-04T05:20:19.028Z,100
2022-12-04T05:26:19.931Z,100
2022-12-04T05:32:11.719Z,100
2022-12-04T05:37:51.335Z,100
2022-12-04T05:43:31.704Z,100
2022-12-04T05:49:28.275Z,100
2022-12-04T05:55:01.056Z,100
2022-12-04T06:00:45.593Z,100
2022-12-04T06:06:27.635Z,100
2022-12-04T06:12:02.603Z,100
2022-12-04T06:17:45.669Z,100
2022-12-04T06:23:30.000Z,100
2022-12-04T06:29:16.883Z,100
2022-12-04T06:35:07.713Z,100
2022-12-04T06:40:43.143Z,100
2022-12-04T06:46:55.398Z,100
2022-12-04T06:52:28.043Z,100
2022-12-04T06:58:03.166Z,100
2022-12-04T07:03:38.056Z,100
2022-12-04T07:09:12.927Z,100
2022-12-04T07:14:48.446Z,100
2022-12-04T07:20:23.699Z,100
2022-12-04T07:25:58.491Z,100
2022-12-04T07:32:18.871Z,100
2022-12-04T07:38:00.682Z,100
2022-12-04T07:43:52.274Z,100
2022-12-04T07:49:39.898Z,100
2022-12-04T07:55:23.345Z,100
2022-12-04T08:00:59.432Z,100
2022-12-04T08:07:09.019Z,99.5
2022-12-04T08:12:46.666Z,99.6
2022-12-04T08:18:22.395Z,99.3
2022-12-04T08:24:05.362Z,98.6
2022-12-04T08:29:47.953Z,97.5
2022-12-04T08:35:33.188Z,97.1
2022-12-04T08:41:37.968Z,96.6
2022-12-04T08:47:13.327Z,95.8
2022-12-04T08:52:51.698Z,94.8
2022-12-04T08:58:42.409Z,93.3
2022-12-04T09:04:22.071Z,93.2
2022-12-04T09:09:59.133Z,92.4
2022-12-04T09:16:23.142Z,89.6
2022-12-04T09:22:10.065Z,90
2022-12-04T09:27:53.123Z,90.3
2022-12-04T09:34:11.690Z,85.6
2022-12-04T09:39:54.575Z,89.6
2022-12-04T09:45:32.279Z,87.8
2022-12-04T09:51:28.203Z,84.9
2022-12-04T09:57:03.460Z,85.8
2022-12-04T10:02:51.972Z,85.3
2022-12-04T10:08:28.588Z,83.1
2022-12-04T10:14:07.988Z,77
2022-12-04T10:19:58.961Z,81.1
2022-12-04T10:25:45.681Z,75.5
2022-12-04T10:31:30.368Z,76.8
2022-12-04T10:37:38.620Z,78.3
2022-12-04T10:43:14.761Z,74
2022-12-04T10:48:53.358Z,75.1
2022-12-04T10:54:37.044Z,74.1
2022-12-04T11:00:20.255Z,77.8
2022-12-04T11:06:03.926Z,77.2
2022-12-04T11:11:57.038Z,71.9
2022-12-04T11:17:42.793Z,72.6
2022-12-04T11:23:18.084Z,69.2
2022-12-04T11:28:53.788Z,68.3
2022-12-04T11:34:34.232Z,60.7
2022-12-04T11:40:16.908Z,56.7
2022-12-04T11:45:52.771Z,54.2
2022-12-04T11:51:27.976Z,45.3
2022-12-04T11:57:12.052Z,46.9
2022-12-04T12:02:59.023Z,45.9
2022-12-04T12:08:55.904Z,40.6
2022-12-04T12:14:32.331Z,43.4
2022-12-04T12:20:16.775Z,41.4
2022-12-04T12:25:53.299Z,37.4
2022-12-04T12:31:29.141Z,45.6
2022-12-04T12:37:05.859Z,38.8
2022-12-04T12:42:41.615Z,35.9
2022-12-04T12:48:39.720Z,32.9
2022-12-04T12:54:13.770Z,31.7
2022-12-04T12:59:50.098Z,34.6
2022-12-04T13:05:25.492Z,33.9
2022-12-04T13:11:00.501Z,35.1
2022-12-04T13:16:44.500Z,31.6
2022-12-04T13:22:59.120Z,31.8
2022-12-04T13:28:41.988Z,32.2
2022-12-04T13:34:19.362Z,31.6
2022-12-04T13:40:04.013Z,30
2022-12-04T13:46:00.514Z,31.2
2022-12-04T13:51:42.520Z,30
2022-12-04T13:57:18.153Z,29.8
2022-12-04T14:02:54.862Z,28.6
2022-12-04T14:08:33.342Z,29.1
2022-12-04T14:14:20.209Z,29.2
2022-12-04T14:20:08.544Z,50.6
2022-12-04T14:25:45.269Z,53.5
2022-12-04T14:32:46.697Z,63.8
2022-12-04T14:38:42.222Z,62.6
2022-12-04T14:44:37.669Z,68.5
2022-12-04T14:50:15.806Z,70.4
2022-12-04T14:56:08.000Z,68
2022-12-04T15:01:58.151Z,72.1
2022-12-04T15:07:39.782Z,72.6
2022-12-04T15:13:21.939Z,69.5
2022-12-04T15:19:05.345Z,73.6
2022-12-04T15:24:50.136Z,75.5
2022-12-04T15:30:30.806Z,76.1
2022-12-04T15:36:05.584Z,76.9
2022-12-04T15:42:04.264Z,77.5
2022-12-04T15:48:09.194Z,80
2022-12-04T15:53:41.674Z,73.9
2022-12-04T15:59:17.000Z,78
2022-12-04T16:04:57.517Z,76.8
2022-12-04T16:10:34.910Z,71.1
2022-12-04T16:16:10.183Z,78.1
2022-12-04T16:21:46.421Z,82
2022-12-04T16:27:23.981Z,76.4
2022-12-04T16:32:59.188Z,79.9
2022-12-04T16:38:35.697Z,80.5
2022-12-04T16:44:10.842Z,80.3
2022-12-04T16:49:51.249Z,83.3
2022-12-04T16:55:26.208Z,80.3
2022-12-04T17:01:01.535Z,84.1
2022-12-04T17:06:43.818Z,83.9
2022-12-04T17:12:19.170Z,84.9
2022-12-04T17:18:39.826Z,87.1
2022-12-04T17:24:25.705Z,87.8
2022-12-04T17:30:02.982Z,89.3
2022-12-04T17:35:55.159Z,90.6
2022-12-04T17:41:39.359Z,88.8
2022-12-04T17:47:40.074Z,89.8
2022-12-04T17:53:13.118Z,89.9
2022-12-04T17:58:55.252Z,90.4
2022-12-04T18:04:31.324Z,91
2022-12-04T18:10:09.952Z,91.5
2022-12-04T18:15:54.986Z,93.3
2022-12-04T18:21:56.376Z,93.1
2022-12-04T18:27:42.093Z,94.2
2022-12-04T18:33:19.478Z,94.5
2022-12-04T18:39:15.787Z,94.6
2022-12-04T18:44:51.032Z,94.9
2022-12-04T18:50:26.445Z,94.6
2022-12-04T18:56:29.226Z,95.7
2022-12-04T19:02:07.507Z,93.7
2022-12-04T19:07:44.229Z,94.3
2022-12-04T19:13:20.236Z,95.2
2022-12-04T19:18:55.724Z,95.7
2022-12-04T19:24:30.894Z,95.4
2022-12-04T19:30:05.666Z,96.2
2022-12-04T19:35:40.872Z,95.9
2022-12-04T19:41:15.966Z,96.1
2022-12-04T19:46:51.106Z,96.2
2022-12-04T19:52:26.790Z,96.3
2022-12-04T19:58:06.088Z,96.3
2022-12-04T20:03:41.613Z,96.6
2022-12-04T20:09:24.167Z,96.4
2022-12-04T20:15:04.748Z,96.7
2022-12-04T20:20:44.074Z,97.2
2022-12-04T20:26:19.149Z,96.9
2022-12-04T20:31:54.464Z,96.8
2022-12-04T20:37:30.011Z,97
2022-12-04T20:43:05.690Z,97.2
2022-12-04T20:49:03.136Z,97
2022-12-04T20:54:41.990Z,97.2
2022-12-04T21:00:26.365Z,97.6
2022-12-04T21:07:10.040Z,97.5
2022-12-04T21:12:49.182Z,97.7
2022-12-04T21:18:24.631Z,97.8
2022-12-04T21:23:59.724Z,97.7
2022-12-04T21:29:37.942Z,97.7
2022-12-04T21:35:22.301Z,97.8
2022-12-04T21:40:58.228Z,98.4
2022-12-04T21:46:55.758Z,98
2022-12-04T21:52:31.979Z,98.2
2022-12-04T21:58:27.761Z,98.3
2022-12-04T22:04:03.570Z,98.3
2022-12-04T22:09:42.534Z,98.2
2022-12-04T22:15:20.437Z,98.6
2022-12-04T22:20:55.638Z,98.5
2022-12-04T22:26:31.381Z,98.6
2022-12-04T22:32:09.552Z,98.7
2022-12-04T22:37:45.305Z,98.6
2022-12-04T22:43:41.011Z,98.9
2022-12-04T22:49:37.990Z,99
2022-12-04T22:55:10.944Z,99
2022-12-04T23:00:46.170Z,98.6
2022-12-04T23:06:22.119Z,98.9
2022-12-04T23:11:57.413Z,98.8
2022-12-04T23:17:32.730Z,98.9
2022-12-04T23:23:09.226Z,99
2022-12-04T23:29:51.255Z,99.1
2022-12-04T23:35:33.950Z,99
2022-12-04T23:41:11.294Z,98.9
2022-12-04T23:47:25.113Z,99
2022-12-04T23:52:58.109Z,98.9
2022-12-04T23:58:43.216Z,99.2
